Time;durP1;ratioP1;P1;durP2;ratioP2;P2;SDS_P1;SDS_P2;PMS_P1;PMS_P2;Temp;Humidity;BMP_temperature;BMP_pressure;BME280_temperature;BME280_humidity;BME280_pressure;Samples;Min_cycle;Max_cycle;Signal;HPM_P1;HPM_P2
2023/05/02 00:01:29;;;;;;;18.73;7.57;;;;;;;;;;6185737;23;20064;-88
2023/05/02 00:04:14;;;;;;;16.45;6.72;;;;;;;;;;6185740;23;20020;-85
2023/05/02 00:06:59;;;;;;;20.15;7.18;;;;;;;;;;6163843;23;20016;-85
2023/05/02 00:09:43;;;;;;;17.13;7.30;;;;;;;;;;6163752;23;20019;-86
2023/05/02 00:12:28;;;;;;;15.05;6.78;;;;;;;;;;6185755;23;20012;-86
2023/05/02 00:15:12;;;;;;;15.63;7.57;;;;;;;;;;6185666;23;20491;-88
2023/05/02 00:17:57;;;;;;;12.88;6.32;;;;;;;;;;6163775;23;20029;-86
2023/05/02 00:20:42;;;;;;;13.70;6.70;;;;;;;;;;6163705;23;20016;-86
2023/05/02 00:23:26;;;;;;;17.33;6.05;;;;;;;;;;6185374;23;20170;-85
2023/05/02 00:26:11;;;;;;;19.48;6.78;;;;;;;;;;6163226;23;20020;-85
2023/05/02 00:28:55;;;;;;;11.93;5.20;;;;;;;;;;6185939;23;20455;-86
2023/05/02 00:31:43;;;;;;;13.57;7.07;;;;;;;;;;6185883;23;20020;-85
2023/05/02 00:34:30;;;;;;;15.80;5.95;;;;;;;;;;6185221;23;20024;-87
2023/05/02 00:37:15;;;;;;;11.23;5.53;;;;;;;;;;6185421;23;20012;-86
2023/05/02 00:39:59;;;;;;;14.88;5.95;;;;;;;;;;6163579;23;20028;-85
2023/05/02 00:42:44;;;;;;;15.93;5.47;;;;;;;;;;6185138;23;20067;-85
2023/05/02 00:45:29;;;;;;;16.65;4.80;;;;;;;;;;6163019;23;20020;-85
2023/05/02 00:48:13;;;;;;;15.80;5.32;;;;;;;;;;6185412;23;20498;-85
2023/05/02 00:50:58;;;;;;;13.68;5.18;;;;;;;;;;6163764;23;20060;-85
2023/05/02 00:53:43;;;;;;;11.30;5.97;;;;;;;;;;6163301;23;20016;-86
2023/05/02 00:56:27;;;;;;;14.52;4.57;;;;;;;;;;6162955;23;20479;-86
2023/05/02 00:59:13;;;;;;;13.23;5.10;;;;;;;;;;6185477;23;20417;-86
2023/05/02 01:02:07;;;;;;;12.65;4.50;;;;;;;;;;6185661;23;20459;-86
2023/05/02 01:05:05;;;;;;;9.55;4.95;;;;;;;;;;6185627;23;20012;-86
2023/05/02 01:08:10;;;;;;;16.40;4.70;;;;;;;;;;6163255;23;20500;-85
2023/05/02 01:11:15;;;;;;;11.13;3.65;;;;;;;;;;6185568;23;20089;-85
2023/05/02 01:14:03;;;;;;;11.63;4.13;;;;;;;;;;6163240;23;20336;-85
2023/05/02 01:16:48;;;;;;;10.68;4.50;;;;;;;;;;6185485;23;20016;-86
2023/05/02 01:19:35;;;;;;;14.80;4.07;;;;;;;;;;6162466;23;20078;-85
2023/05/02 01:22:21;;;;;;;11.68;3.88;;;;;;;;;;6184879;23;20128;-85
2023/05/02 01:25:06;;;;;;;12.55;4.07;;;;;;;;;;6185396;23;20062;-85
2023/05/02 01:28:10;;;;;;;13.45;4.22;;;;;;;;;;6185355;23;20036;-85
2023/05/02 01:30:55;;;;;;;13.57;6.25;;;;;;;;;;6163022;23;20011;-86
2023/05/02 01:33:40;;;;;;;9.07;3.75;;;;;;;;;;6187823;23;20023;-86
2023/05/02 01:36:26;;;;;;;14.30;3.65;;;;;;;;;;6184929;23;20059;-86
2023/05/02 01:39:13;;;;;;;15.35;4.10;;;;;;;;;;6185198;23;20020;-86
2023/05/02 01:41:59;;;;;;;15.63;4.90;;;;;;;;;;6185265;23;20092;-86
2023/05/02 01:44:44;;;;;;;9.07;3.92;;;;;;;;;;6184890;23;20012;-86
2023/05/02 01:47:30;;;;;;;12.77;4.28;;;;;;;;;;6184774;23;20060;-86
2023/05/02 01:50:17;;;;;;;14.95;4.10;;;;;;;;;;6185235;23;20523;-86
2023/05/02 01:53:03;;;;;;;14.50;4.20;;;;;;;;;;6162880;23;20336;-86
2023/05/02 01:55:48;;;;;;;11.18;3.85;;;;;;;;;;6162569;23;20339;-86
2023/05/02 01:58:35;;;;;;;16.98;4.38;;;;;;;;;;6184559;23;20040;-86
2023/05/02 02:01:20;;;;;;;11.82;4.85;;;;;;;;;;6185115;23;20086;-85
2023/05/02 02:04:05;;;;;;;16.15;4.60;;;;;;;;;;6185030;23;20475;-86
2023/05/02 02:06:53;;;;;;;20.02;5.60;;;;;;;;;;6184948;23;20016;-86
2023/05/02 02:09:38;;;;;;;14.98;4.68;;;;;;;;;;6184478;23;20032;-85
2023/05/02 02:12:25;;;;;;;11.90;4.00;;;;;;;;;;6184868;23;20024;-86
2023/05/02 02:15:17;;;;;;;11.68;4.25;;;;;;;;;;6184985;23;20016;-86
2023/05/02 02:18:10;;;;;;;11.90;3.95;;;;;;;;;;6184818;23;20027;-86
2023/05/02 02:20:56;;;;;;;15.82;3.50;;;;;;;;;;6184948;23;20089;-86
2023/05/02 02:23:42;;;;;;;17.08;4.20;;;;;;;;;;6183783;23;20019;-86
2023/05/02 02:26:27;;;;;;;15.20;3.90;;;;;;;;;;6184418;23;20012;-86
2023/05/02 02:29:12;;;;;;;12.55;3.83;;;;;;;;;;6162458;23;20020;-86
2023/05/02 02:31:56;;;;;;;21.55;3.90;;;;;;;;;;6184676;23;20012;-86
2023/05/02 02:34:41;;;;;;;13.55;3.97;;;;;;;;;;6184085;23;20075;-86
2023/05/02 02:37:30;;;;;;;14.10;3.60;;;;;;;;;;6184509;23;20068;-86
2023/05/02 02:40:34;;;;;;;17.05;3.80;;;;;;;;;;6184656;23;20096;-86
2023/05/02 02:43:25;;;;;;;21.83;4.37;;;;;;;;;;6184845;23;20012;-86
2023/05/02 02:46:28;;;;;;;24.60;5.28;;;;;;;;;;6162455;23;20016;-86
2023/05/02 02:49:36;;;;;;;20.20;3.90;;;;;;;;;;6184710;23;20024;-86
2023/05/02 02:52:30;;;;;;;17.42;4.97;;;;;;;;;;6184482;23;20340;-86
2023/05/02 02:55:15;;;;;;;21.98;4.57;;;;;;;;;;6162301;23;20375;-86
2023/05/02 02:58:18;;;;;;;15.60;4.35;;;8.80;99.90;;;;;;6184526;23;20409;-86
2023/05/02 03:01:05;;;;;;;18.88;4.53;;;;;;;;;;6184650;23;20020;-86
2023/05/02 03:03:50;;;;;;;23.83;4.75;;;;;;;;;;6184114;23;20019;-87
2023/05/02 03:06:35;;;;;;;27.73;4.63;;;;;;;;;;6183667;23;20062;-86
2023/05/02 03:09:20;;;;;;;19.15;4.70;;;;;;;;;;6184556;23;20019;-86
2023/05/02 03:12:05;;;;;;;16.98;4.30;;;;;;;;;;6184613;23;20444;-86
2023/05/02 03:14:50;;;;;;;23.00;4.97;;;;;;;;;;6141102;23;20094;-86
2023/05/02 03:17:34;;;;;;;16.15;4.82;;;;;;;;;;6184046;23;20012;-85
2023/05/02 03:20:19;;;;;;;24.33;5.00;;;;;;;;;;6184499;23;20024;-86
2023/05/02 03:23:04;;;;;;;21.38;5.07;;;;;;;;;;6184310;23;20032;-86
2023/05/02 03:25:48;;;;;;;17.65;3.97;;;;;;;;;;6184035;23;20020;-86
2023/05/02 03:28:33;;;;;;;24.40;4.47;;;;;;;;;;6184140;23;20372;-85
2023/05/02 03:31:17;;;;;;;24.33;5.07;;;;;;;;;;6184368;23;20021;-86
2023/05/02 03:34:02;;;;;;;23.35;4.78;;;;;;;;;;6184498;23;20028;-86
2023/05/02 03:36:46;;;;;;;23.58;3.80;;;;;;;;;;6183855;23;20044;-86
2023/05/02 03:39:31;;;;;;;24.08;4.28;;;;;;;;;;6161881;23;20068;-87
2023/05/02 03:42:15;;;;;;;16.33;3.78;;;;;;;;;;6162059;23;20015;-86
2023/05/02 03:45:00;;;;;;;14.10;3.75;;;;;;;;;;6184274;23;20063;-86
2023/05/02 03:47:44;;;;;;;20.13;4.05;;;;;;;;;;6183877;23;20016;-87
2023/05/02 03:50:29;;;;;;;17.23;3.83;;;;;;;;;;6141378;23;20059;-86
2023/05/02 03:53:15;;;;;;;15.65;3.15;;;;;;;;;;6184325;23;20020;-86
2023/05/02 03:55:59;;;;;;;13.73;3.22;;;;;;;;;;6183925;23;20019;-86
2023/05/02 03:58:44;;;;;;;12.38;3.72;;;;;;;;;;6161566;23;20085;-87
2023/05/02 04:01:28;;;;;;;16.10;4.03;;;;;;;;;;6184734;23;20051;-86
2023/05/02 04:04:13;;;;;;;12.85;3.42;;;;;;;;;;6162623;23;20108;-87
2023/05/02 04:06:57;;;;;;;12.10;2.45;;;;;;;;;;6184171;23;20440;-87
2023/05/02 04:09:41;;;;;;;15.35;3.42;;;;;;;;;;6184157;23;20025;-87
2023/05/02 04:12:26;;;;;;;7.97;2.90;;;;;;;;;;6162365;23;20016;-87
2023/05/02 04:15:11;;;;;;;7.60;2.78;;;;;;;;;;6162939;23;20493;-85
2023/05/02 04:17:57;;;;;;;11.57;2.83;;;7.70;99.90;;;;;;6163798;23;20056;-87
2023/05/02 04:20:45;;;;;;;11.80;2.47;;;;;;;;;;6186222;23;20124;-86
2023/05/02 04:23:29;;;;;;;7.80;2.40;;;;;;;;;;6164333;23;20478;-86
2023/05/02 04:26:15;;;;;;;9.57;2.35;;;;;;;;;;6186513;23;20390;-85
2023/05/02 04:29:00;;;;;;;6.95;2.20;;;;;;;;;;6186293;23;20104;-86
2023/05/02 04:31:45;;;;;;;10.35;2.95;;;;;;;;;;6185526;23;20085;-86
2023/05/02 04:34:29;;;;;;;6.68;2.00;;;;;;;;;;6186274;23;20099;-86
2023/05/02 04:37:14;;;;;;;10.23;2.53;;;;;;;;;;6186140;23;20071;-86
2023/05/02 04:39:58;;;;;;;10.55;2.70;;;;;;;;;;6185342;23;20107;-86
2023/05/02 04:42:43;;;;;;;24.33;3.00;;;;;;;;;;6183846;23;20024;-88
2023/05/02 04:45:28;;;;;;;7.75;2.20;;;;;;;;;;6185762;23;20016;-87
2023/05/02 04:48:13;;;;;;;13.35;2.47;;;;;;;;;;6163632;23;20028;-87
2023/05/02 04:50:58;;;;;;;13.68;2.78;;;;;;;;;;6164758;23;20024;-88
2023/05/02 04:53:43;;;;;;;8.80;2.35;;;;;;;;;;6163774;23;20016;-86
2023/05/02 04:56:28;;;;;;;6.85;1.80;;;;;;;;;;6184911;23;20071;-88
2023/05/02 04:59:13;;;;;;;9.80;2.88;;;;;;;;;;6163115;23;20024;-89
2023/05/02 05:01:58;;;;;;;6.05;2.55;;;;;;;;;;6162582;23;20063;-88
2023/05/02 05:04:44;;;;;;;7.93;2.08;;;;;;;;;;6185083;23;20020;-85
2023/05/02 05:07:29;;;;;;;9.82;2.10;;;;;;;;;;6184673;23;20059;-86
2023/05/02 05:10:13;;;;;;;11.10;3.30;;;;;;;;;;6185141;23;20482;-87
2023/05/02 05:12:58;;;;;;;7.78;2.40;;;;;;;;;;6185037;23;20012;-87
2023/05/02 05:15:43;;;;;;;11.35;2.47;;;;;;;;;;6185533;23;20016;-88
2023/05/02 05:18:27;;;;;;;11.57;2.45;;;;;;;;;;6185454;23;20344;-88
2023/05/02 05:21:12;;;;;;;6.55;2.53;;;;;;;;;;6185418;23;20075;-88
2023/05/02 05:23:57;;;;;;;9.63;2.17;;;;;;;;;;6185014;23;20015;-88
2023/05/02 05:26:41;;;;;;;10.70;2.60;;;;;;;;;;6163256;23;20020;-88
2023/05/02 05:29:26;;;;;;;11.30;2.10;;;;;;;;;;6162812;23;20019;-88
2023/05/02 05:32:10;;;;;;;5.95;2.63;;;;;;;;;;6185294;23;20068;-89
2023/05/02 05:34:55;;;;;;;11.02;2.35;;;;;;;;;;6185851;23;20020;-88
2023/05/02 05:37:39;;;;;;;14.65;2.85;;;;;;;;;;6185363;23;20449;-87
2023/05/02 05:40:24;;;;;;;10.55;2.47;;;;;;;;;;6185401;23;20027;-89
2023/05/02 05:43:09;;;;;;;11.45;2.70;;;;;;;;;;6184792;23;20256;-88
2023/05/02 05:45:54;;;;;;;10.30;2.63;;;;;;;;;;6184600;23;20336;-88
2023/05/02 05:48:39;;;;;;;12.60;2.75;;;;;;;;;;6185188;23;20067;-89
2023/05/02 05:51:23;;;;;;;10.93;2.97;;;;;;;;;;6185175;23;20447;-87
2023/05/02 05:54:08;;;;;;;9.00;2.72;;;;;;;;;;6184643;23;20058;-88
2023/05/02 05:56:52;;;;;;;13.63;3.85;;;;;;;;;;6184549;23;20067;-87
2023/05/02 05:59:37;;;;;;;15.35;2.55;;;;;;;;;;6185065;23;20463;-88
2023/05/02 06:02:21;;;;;;;12.65;3.00;;;;;;;;;;6162801;23;20016;-88
2023/05/02 06:05:06;;;;;;;9.48;2.05;;;;;;;;;;6141487;23;20375;-88
2023/05/02 06:07:51;;;;;;;12.88;3.10;;;;;;;;;;6162918;23;20346;-86
2023/05/02 06:10:36;;;;;;;14.98;3.45;;;;;;;;;;6162483;23;20016;-89
2023/05/02 06:13:20;;;;;;;9.45;2.38;;;;;;;;;;6185048;23;20020;-90
2023/05/02 06:16:05;;;;;;;10.75;3.00;;;;;;;;;;6184506;23;20015;-87
2023/05/02 06:18:51;;;;;;;14.60;2.75;;;;;;;;;;6184748;23;20347;-88
2023/05/02 06:21:37;;;;;;;17.70;3.08;;;;;;;;;;6162530;23;20101;-87
2023/05/02 06:24:21;;;;;;;13.13;3.50;;;;;;;;;;6184807;23;20519;-88
2023/05/02 06:27:06;;;;;;;14.43;3.60;;;;;;;;;;6184407;23;20016;-88
2023/05/02 06:29:51;;;;;;;13.45;3.08;;;;;;;;;;6185027;23;20108;-88
2023/05/02 06:32:36;;;;;;;14.43;2.72;;;;;;;;;;6184842;23;20106;-89
2023/05/02 06:35:20;;;;;;;14.90;3.05;;;;;;;;;;6184898;23;20104;-89
2023/05/02 06:38:05;;;;;;;13.18;3.20;;;;;;;;;;6162123;23;20029;-89
2023/05/02 06:40:50;;;;;;;10.65;3.38;;;;;;;;;;6184112;23;20024;-88
2023/05/02 06:43:34;;;;;;;8.77;3.45;;;;;;;;;;6184600;23;20012;-89
2023/05/02 06:46:19;;;;;;;18.08;3.15;;;;;;;;;;6184164;23;20016;-88
2023/05/02 06:49:04;;;;;;;10.90;2.60;;;;;;;;;;6161953;23;20337;-87
2023/05/02 06:51:49;;;;;;;10.63;2.80;;;;;;;;;;6162458;23;20020;-87
2023/05/02 06:54:33;;;;;;;24.45;3.38;;;;;;;;;;6184616;23;20027;-88
2023/05/02 06:57:18;;;;;;;22.90;2.92;;;;;;;;;;6161783;23;20188;-86
2023/05/02 07:00:03;;;;;;;11.60;3.70;;;;;;;;;;6161883;23;20028;-88
2023/05/02 07:02:49;;;;;;;12.68;2.70;;;;;;;;;;6184640;23;20043;-88
2023/05/02 07:05:33;;;;;;;8.38;2.42;;;;;;;;;;6162346;23;20016;-87
2023/05/02 07:08:20;;;;;;;12.13;3.83;;;;;;;;;;6183892;23;20092;-88
2023/05/02 07:11:04;;;;;;;11.27;3.75;;;;;;;;;;6183571;23;20052;-87
2023/05/02 07:13:49;;;;;;;12.50;2.63;;;;;;;;;;6161671;23;20090;-90
2023/05/02 07:16:34;;;;;;;10.25;2.28;;;;;;;;;;6161500;23;20063;-89
2023/05/02 07:19:19;;;;;;;13.90;2.78;;;;;;;;;;6183365;23;20020;-89
2023/05/02 07:22:03;;;;;;;8.75;2.60;;;;;;;;;;6161211;23;20020;-88
2023/05/02 07:24:48;;;;;;;12.35;3.40;;;;;;;;;;6162123;23;20067;-89
2023/05/02 07:27:32;;;;;;;9.50;2.20;;;;;;;;;;6184442;23;20023;-90
2023/05/02 07:30:17;;;;;;;8.15;2.35;;;;;;;;;;6161565;23;20020;-89
2023/05/02 07:33:02;;;;;;;8.98;3.17;;;;;;;;;;6184153;23;20033;-88
2023/05/02 07:35:47;;;;;;;13.02;2.22;;;;;;;;;;6184397;23;20020;-90
2023/05/02 07:38:32;;;;;;;9.55;2.70;;;;;;;;;;6161968;23;20059;-90
2023/05/02 07:41:16;;;;;;;10.27;2.42;;;;;;;;;;6183852;23;20023;-87
2023/05/02 07:44:00;;;;;;;10.65;3.08;;;;;;;;;;6162138;23;20336;-90
2023/05/02 07:46:45;;;;;;;6.70;2.92;;;;;;;;;;6162220;23;20019;-90
2023/05/02 07:49:30;;;;;;;10.10;2.95;;;;;;;;;;6184191;23;20059;-89
2023/05/02 07:52:15;;;;;;;8.38;2.25;;;;;;;;;;6184372;23;20039;-89
2023/05/02 07:54:59;;;;;;;7.32;1.95;;;;;;;;;;6143268;23;20016;-89
2023/05/02 07:57:44;;;;;;;9.98;2.90;;;;;;;;;;6163889;23;20513;-90
2023/05/02 08:00:29;;;;;;;8.30;2.63;;;;;;;;;;6185759;23;20403;-90
2023/05/02 08:03:14;;;;;;;9.25;2.80;;;;;;;;;;6185871;23;20020;-89
2023/05/02 08:05:58;;;;;;;10.95;3.20;;;;;;;;;;6186207;23;20471;-89
2023/05/02 08:08:43;;;;;;;7.93;2.40;;;;;;;;;;6163931;23;20023;-89
2023/05/02 08:11:27;;;;;;;10.02;2.50;;;;;;;;;;6185680;23;20135;-87
2023/05/02 08:14:12;;;;;;;7.85;3.20;;;;;;;;;;6163489;23;20015;-87
2023/05/02 08:16:57;;;;;;;6.55;2.50;;;;;;;;;;6186087;23;20016;-87
2023/05/02 08:19:41;;;;;;;8.57;2.47;;;;;;;;;;6186031;23;20024;-87
2023/05/02 08:22:26;;;;;;;11.02;2.45;;;;;;;;;;6142643;23;20497;-87
2023/05/02 08:25:10;;;;;;;7.05;2.67;;;;;;;;;;6185622;23;20012;-84
2023/05/02 08:27:55;;;;;;;9.52;2.10;;;;;;;;;;6186067;23;20012;-87
2023/05/02 08:30:40;;;;;;;7.38;2.22;;;;;;;;;;6163748;23;20020;-88
2023/05/02 08:33:25;;;;;;;11.70;3.92;;;;;;;;;;6163282;23;20320;-88
2023/05/02 08:36:14;;;;;;;7.57;3.10;;;;;;;;;;6185991;23;20016;-85
2023/05/02 08:38:59;;;;;;;10.63;2.13;;;;;;;;;;6185788;23;20059;-87
2023/05/02 08:41:44;;;;;;;12.05;2.67;;;;;;;;;;6185874;23;20012;-87
2023/05/02 08:44:28;;;;;;;9.70;2.55;;;;;;;;;;6185414;23;20062;-87
2023/05/02 08:47:13;;;;;;;9.65;2.20;;;;;;;;;;6163368;23;20096;-85
2023/05/02 08:49:58;;;;;;;8.23;2.30;;;;;;;;;;6185637;23;20015;-86
2023/05/02 08:52:44;;;;;;;9.07;1.90;;;;;;;;;;6163259;23;20089;-87
2023/05/02 08:55:28;;;;;;;5.32;1.77;;;;;;;;;;6185148;23;20079;-87
2023/05/02 08:58:13;;;;;;;8.85;2.13;;;;;;;;;;6185471;23;20462;-85
2023/05/02 09:01:02;;;;;;;10.88;2.13;;;;;;;;;;6163276;23;20373;-87
2023/05/02 09:03:47;;;;;;;9.63;1.70;;;;;;;;;;6185081;23;20016;-86
2023/05/02 09:06:31;;;;;;;9.07;1.85;;;;;;;;;;6185072;23;20027;-88
2023/05/02 09:09:16;;;;;;;6.50;1.65;;;;;;;;;;6185083;23;20020;-88
2023/05/02 09:12:01;;;;;;;5.50;1.38;;;;;;;;;;6185488;23;20012;-89
2023/05/02 09:14:46;;;;;;;8.60;1.80;;;;;;;;;;6185537;23;20015;-90
2023/05/02 09:17:41;;;;;;;11.45;2.22;;;10.70;97.10;;;;;;6184870;23;20075;-86
2023/05/02 09:20:26;;;;;;;7.55;2.28;;;;;;;;;;6162910;23;20087;-86
2023/05/02 09:23:11;;;;;;;5.90;1.45;;;;;;;;;;6185501;23;20060;-86
2023/05/02 09:25:55;;;;;;;4.90;1.83;;;;;;;;;;6163081;23;20339;-86
2023/05/02 09:28:41;;;;;;;7.25;1.98;;;;;;;;;;6162896;23;20086;-86
2023/05/02 09:31:26;;;;;;;4.40;1.70;;;;;;;;;;6184780;23;20331;-87
2023/05/02 09:34:13;;;;;;;6.72;1.75;;;10.50;95.40;;;;;;6185446;23;20329;-87
2023/05/02 09:36:58;;;;;;;7.60;1.67;;;;;;;;;;6185331;23;20343;-90
2023/05/02 09:40:02;;;;;;;6.40;1.67;;;;;;;;;;6184833;23;20027;-89
2023/05/02 09:42:47;;;;;;;3.92;1.80;;;;;;;;;;6163038;23;20015;-89
2023/05/02 09:45:32;;;;;;;7.25;1.88;;;;;;;;;;6184786;23;20016;-90
2023/05/02 09:48:17;;;;;;;4.20;1.48;;;;;;;;;;6185193;23;20020;-88
2023/05/02 09:51:01;;;;;;;5.35;1.63;;;;;;;;;;6185100;23;20346;-87
2023/05/02 09:53:46;;;;;;;5.32;1.45;;;;;;;;;;6185281;23;20450;-88
2023/05/02 09:56:31;;;;;;;4.30;1.60;;;;;;;;;;6184629;23;20092;-89
2023/05/02 09:59:16;;;;;;;4.68;1.38;;;;;;;;;;6162729;23;20505;-89
2023/05/02 10:02:06;;;;;;;6.65;1.33;;;;;;;;;;6163276;23;20075;-89
2023/05/02 10:04:53;;;;;;;5.47;1.73;;;;;;;;;;6162784;23;20058;-88
2023/05/02 10:07:37;;;;;;;3.67;1.52;;;;;;;;;;6184508;23;20059;-88
2023/05/02 10:10:22;;;;;;;5.68;1.80;;;;;;;;;;6184822;23;20547;-86
2023/05/02 10:13:08;;;;;;;4.93;1.92;;;;;;;;;;6184864;23;20012;-90
2023/05/02 10:16:00;;;;;;;5.63;1.33;;;;;;;;;;6184717;23;20096;-87
2023/05/02 10:18:48;;;;;;;2.72;1.30;;;;;;;;;;6184273;23;20075;-86
2023/05/02 10:21:33;;;;;;;3.75;1.33;;;;;;;;;;6184355;23;20076;-87
2023/05/02 10:24:18;;;;;;;6.45;1.40;;;;;;;;;;6162441;23;20451;-86
2023/05/02 10:27:04;;;;;;;4.80;1.70;;;;;;;;;;6162783;23;20022;-86
2023/05/02 10:29:51;;;;;;;3.10;1.10;;;;;;;;;;6162086;23;20020;-87
2023/05/02 10:32:36;;;;;;;4.15;1.30;;;;;;;;;;6184283;23;20060;-86
2023/05/02 10:35:21;;;;;;;2.42;1.02;;;;;;;;;;6163054;23;20029;-87
2023/05/02 10:38:05;;;;;;;2.83;1.00;;;;;;;;;;6184432;23;20024;-87
2023/05/02 10:41:00;;;;;;;3.08;0.80;;;;;;;;;;6184742;23;20046;-87
2023/05/02 10:43:46;;;;;;;3.33;1.17;;;;;;;;;;6184350;23;20379;-87
2023/05/02 10:46:31;;;;;;;3.15;1.10;;;;;;;;;;6184289;23;20380;-87
2023/05/02 10:49:15;;;;;;;2.58;0.93;;;;;;;;;;6184772;23;20031;-86
2023/05/02 10:52:20;;;;;;;2.78;1.00;;;;;;;;;;6141656;23;20025;-88
2023/05/02 10:55:15;;;;;;;3.30;1.20;;;;;;;;;;6184622;23;20012;-88
2023/05/02 10:57:59;;;;;;;4.55;1.35;;;;;;;;;;6184543;23;20494;-87
2023/05/02 11:00:44;;;;;;;6.32;1.15;;;;;;;;;;6161919;23;20506;-88
2023/05/02 11:03:56;;;;;;;6.15;1.30;;;11.40;92.20;;;;;;6184473;23;20344;-85
2023/05/02 11:06:56;;;;;;;8.23;1.83;;;;;;;;;;6161948;23;20336;-88
2023/05/02 11:09:41;;;;;;;3.40;1.20;;;;;;;;;;6183958;23;20019;-88
2023/05/02 11:12:47;;;;;;;5.25;1.40;;;;;;;;;;6141165;23;20019;-87
2023/05/02 11:15:32;;;;;;;7.97;1.20;;;;;;;;;;6184040;23;20032;-85
2023/05/02 11:18:16;;;;;;;4.40;1.30;;;;;;;;;;6184444;23;20088;-88
2023/05/02 11:21:26;;;;;;;9.50;1.38;;;;;;;;;;6184462;23;20067;-87
2023/05/02 11:24:48;;;;;;;5.30;1.50;;;11.80;92.50;;;;;;6184344;23;20092;-87
2023/05/02 11:27:36;;;;;;;4.22;1.38;;;;;;;;;;6185706;23;20059;-85
2023/05/02 11:30:51;;;;;;;3.33;1.20;;;;;;;;;;6187710;23;20020;-88
2023/05/02 11:33:36;;;;;;;4.15;1.27;;;;;;;;;;6177350;23;20070;-87
2023/05/02 11:36:28;;;;;;;6.13;1.60;;;;;;;;;;6187792;23;20450;-87
2023/05/02 11:39:19;;;;;;;3.97;1.38;;;;;;;;;;6165220;23;20028;-87
2023/05/02 11:42:04;;;;;;;6.18;2.40;;;;;;;;;;6187115;23;20451;-88
2023/05/02 11:44:55;;;;;;;5.50;1.70;;;;;;;;;;6186732;23;20024;-87
2023/05/02 11:47:41;;;;;;;6.28;1.73;;;;;;;;;;6185925;23;20089;-88
2023/05/02 11:50:29;;;;;;;4.85;1.70;;;;;;;;;;6165375;23;20382;-88
2023/05/02 11:53:14;;;;;;;6.88;1.67;;;;;;;;;;6165338;23;20020;-88
2023/05/02 11:56:03;;;;;;;8.18;1.70;;;11.00;93.50;;;;;;6164832;23;20016;-87
2023/05/02 11:58:57;;;;;;;3.03;1.50;;;;;;;;;;6187101;23;20080;-88
2023/05/02 12:01:48;;;;;;;;;;;11.10;93.50;;;;;;6187698;23;20016;-88
2023/05/02 12:04:41;;;;;;;6.38;2.83;;;;;;;;;;6187717;23;19995;-88
2023/05/02 12:07:36;;;;;;;3.92;1.20;;;;;;;;;;6187663;23;20036;-88
2023/05/02 12:10:21;;;;;;;4.03;1.40;;;;;;;;;;6165233;23;20016;-88
2023/05/02 12:13:05;;;;;;;6.45;1.40;;;;;;;;;;6165274;23;20440;-88
2023/05/02 12:15:50;;;;;;;4.40;1.38;;;;;;;;;;6187197;23;20020;-88
2023/05/02 12:18:35;;;;;;;7.85;1.70;;;;;;;;;;6165217;23;20047;-87
2023/05/02 12:21:20;;;;;;;4.43;1.30;;;;;;;;;;6144721;23;20137;-88
2023/05/02 12:24:04;;;;;;;8.15;1.48;;;;;;;;;;6187245;23;20035;-88
2023/05/02 12:26:51;;;;;;;3.28;1.25;;;;;;;;;;6187044;23;20020;-87
2023/05/02 12:29:39;;;;;;;4.85;1.00;;;;;;;;;;6165205;23;20140;-89
2023/05/02 12:32:34;;;;;;;3.33;0.93;;;;;;;;;;6187606;23;20080;-88
2023/05/02 12:35:22;;;;;;;3.05;1.05;;;;;;;;;;6165040;23;20599;-88
2023/05/02 12:38:17;;;;;;;3.75;1.10;;;;;;;;;;6186951;23;20017;-89
2023/05/02 12:41:02;;;;;;;3.35;1.13;;;;;;;;;;6185527;23;20622;-88
2023/05/02 12:43:47;;;;;;;5.38;1.60;;;;;;;;;;6185539;23;20062;-88
2023/05/02 12:46:32;;;;;;;3.03;1.00;;;;;;;;;;6185898;23;20217;-88
2023/05/02 12:49:17;;;;;;;5.28;1.15;;;;;;;;;;6186138;23;20019;-88
2023/05/02 12:52:01;;;;;;;5.13;1.40;;;;;;;;;;6185709;23;20016;-88
2023/05/02 12:54:46;;;;;;;4.97;1.20;;;;;;;;;;6163120;23;20020;-87
2023/05/02 12:57:31;;;;;;;4.82;1.42;;;;;;;;;;6163649;23;20454;-88
2023/05/02 13:00:19;;;;;;;4.95;1.17;;;;;;;;;;6163526;23;20044;-87
2023/05/02 13:03:04;;;;;;;6.05;1.58;;;;;;;;;;6185361;23;20400;-88
2023/05/02 13:05:53;;;;;;;4.53;1.10;;;;;;;;;;6163194;23;20069;-88
2023/05/02 13:08:38;;;;;;;5.53;1.30;;;;;;;;;;6163734;23;20020;-87
2023/05/02 13:11:23;;;;;;;3.15;1.38;;;;;;;;;;6163636;23;20067;-87
2023/05/02 13:14:10;;;;;;;5.00;1.45;;;;;;;;;;6185224;23;20019;-88
2023/05/02 13:16:55;;;;;;;5.05;1.02;;;;;;;;;;6163430;23;20021;-88
2023/05/02 13:19:39;;;;;;;1.98;0.88;;;;;;;;;;6185905;23;20340;-88
2023/05/02 13:22:24;;;;;;;2.83;1.17;;;;;;;;;;6185908;23;20039;-87
2023/05/02 13:25:09;;;;;;;2.05;0.90;;;;;;;;;;6185414;23;20012;-87
2023/05/02 13:27:54;;;;;;;4.25;1.10;;;;;;;;;;6163154;23;20020;-88
2023/05/02 13:30:39;;;;;;;5.93;1.00;;;;;;;;;;6163438;23;20498;-87
2023/05/02 13:33:24;;;;;;;2.88;1.10;;;;;;;;;;6185470;23;20068;-87
2023/05/02 13:36:08;;;;;;;2.60;0.93;;;;;;;;;;6163018;23;20571;-87
2023/05/02 13:38:53;;;;;;;4.22;1.00;;;;;;;;;;6184973;23;20044;-87
2023/05/02 13:41:37;;;;;;;3.45;0.90;;;;;;;;;;6185416;23;20455;-88
2023/05/02 13:44:22;;;;;;;3.42;0.90;;;;;;;;;;6163518;23;20059;-87
2023/05/02 13:47:06;;;;;;;3.13;0.93;;;;;;;;;;6184814;23;20388;-88
2023/05/02 13:49:51;;;;;;;7.57;1.52;;;;;;;;;;6184721;23;20044;-85
2023/05/02 13:52:35;;;;;;;7.60;1.77;;;;;;;;;;6162933;23;20450;-88
2023/05/02 13:55:20;;;;;;;8.75;1.45;;;;;;;;;;6163006;23;20064;-87
2023/05/02 13:58:04;;;;;;;5.93;1.05;;;;;;;;;;6162733;23;20011;-88
2023/05/02 14:00:49;;;;;;;5.10;1.10;;;;;;;;;;6163048;23;20019;-88
2023/05/02 14:03:33;;;;;;;8.63;1.10;;;;;;;;;;6162986;23;20422;-89
2023/05/02 14:06:18;;;;;;;4.45;1.10;;;;;;;;;;6185198;23;20015;-88
2023/05/02 14:09:03;;;;;;;4.93;1.15;;;;;;;;;;6141769;23;20024;-93
2023/05/02 14:11:48;;;;;;;4.00;1.30;;;;;;;;;;6163187;23;20459;-91
2023/05/02 14:14:34;;;;;;;2.55;0.90;;;;;;;;;;6185335;23;20147;-91
2023/05/02 14:17:20;;;;;;;3.72;1.00;;;;;;;;;;6184944;23;20016;-88
2023/05/02 14:20:06;;;;;;;4.43;1.60;;;;;;;;;;6184521;23;20486;-87
2023/05/02 14:22:50;;;;;;;2.28;1.10;;;;;;;;;;6184916;23;20020;-88
2023/05/02 14:25:35;;;;;;;4.72;0.95;;;;;;;;;;6185243;23;20060;-88
2023/05/02 14:28:20;;;;;;;5.07;1.00;;;;;;;;;;6184863;23;20052;-88
2023/05/02 14:31:05;;;;;;;4.13;1.13;;;;;;;;;;6162212;23;20387;-87
2023/05/02 14:33:49;;;;;;;4.65;1.13;;;;;;;;;;6184769;23;20096;-88
2023/05/02 14:36:33;;;;;;;4.97;1.20;;;;;;;;;;6162750;23;20040;-89
2023/05/02 14:39:18;;;;;;;7.32;1.17;;;;;;;;;;6185037;23;20494;-89
2023/05/02 14:42:03;;;;;;;2.22;1.00;;;;;;;;;;6143570;23;20023;-89
2023/05/02 14:44:48;;;;;;;2.80;1.00;;;;;;;;;;6163008;23;20491;-93
2023/05/02 14:47:32;;;;;;;4.95;1.20;;;;;;;;;;6162798;23;20087;-89
2023/05/02 14:50:17;;;;;;;3.85;0.90;;;;;;;;;;6184319;23;20071;-88
2023/05/02 14:53:01;;;;;;;4.18;1.02;;;;;;;;;;6184272;23;20020;-90
2023/05/02 14:55:46;;;;;;;3.05;0.90;;;;;;;;;;6183481;23;20016;-92
2023/05/02 14:58:31;;;;;;;1.70;0.80;;;;;;;;;;6140858;23;20582;-89
2023/05/02 15:01:19;;;;;;;6.50;0.90;;;;;;;;;;6162198;23;20016;-93
2023/05/02 15:04:04;;;;;;;3.65;0.93;;;;;;;;;;6185673;23;20020;-90
2023/05/02 15:06:49;;;;;;;3.75;0.95;;;;;;;;;;6184604;23;20067;-89
2023/05/02 15:09:33;;;;;;;3.10;0.82;;;;;;;;;;6181971;23;20016;-90
2023/05/02 15:12:18;;;;;;;2.42;0.93;;;;;;;;;;6183569;23;20017;-92
2023/05/02 15:15:03;;;;;;;6.43;1.10;;;;;;;;;;6161448;23;20074;-88
2023/05/02 15:17:47;;;;;;;6.35;1.15;;;;;;;;;;6162008;23;20048;-90
2023/05/02 15:20:32;;;;;;;4.00;1.20;;;;;;;;;;6183949;23;20024;-91
2023/05/02 15:23:17;;;;;;;9.95;1.40;;;;;;;;;;6184219;23;20060;-90
2023/05/02 15:26:01;;;;;;;5.80;1.10;;;;;;;;;;6162478;23;20016;-85
2023/05/02 15:28:46;;;;;;;7.10;1.30;;;;;;;;;;6162461;23;20397;-91
2023/05/02 15:31:30;;;;;;;4.28;1.45;;;;;;;;;;6184329;23;20015;-89
2023/05/02 15:34:15;;;;;;;2.53;1.00;;;;;;;;;;6193009;23;20024;-91
2023/05/02 15:37:00;;;;;;;6.57;1.75;;;;;;;;;;6184635;23;20343;-90
2023/05/02 15:39:44;;;;;;;4.50;1.23;;;;;;;;;;6184530;23;20024;-92
2023/05/02 15:42:29;;;;;;;6.20;1.70;;;;;;;;;;6184869;23;20064;-92
2023/05/02 15:45:14;;;;;;;4.43;1.25;;;;;;;;;;6184284;23;20088;-90
2023/05/02 15:47:58;;;;;;;3.72;1.10;;;;;;;;;;6184954;23;20012;-90
2023/05/02 15:50:43;;;;;;;4.25;1.10;;;;;;;;;;6162355;23;20459;-91
2023/05/02 15:53:28;;;;;;;6.32;1.33;;;;;;;;;;6184258;23;20020;-89
2023/05/02 15:56:13;;;;;;;7.22;1.98;;;;;;;;;;6184003;23;20463;-92
2023/05/02 15:58:58;;;;;;;9.13;2.47;;;;;;;;;;6184365;23;20023;-89
2023/05/02 16:01:42;;;;;;;3.78;1.45;;;;;;;;;;6183864;23;20016;-91
2023/05/02 16:04:27;;;;;;;5.72;1.40;;;;;;;;;;6160222;23;20635;-90
2023/05/02 16:07:12;;;;;;;4.50;1.27;;;;;;;;;;6162414;23;20128;-93
2023/05/02 16:09:57;;;;;;;5.05;2.00;;;;;;;;;;6196009;23;20016;-93
2023/05/02 16:12:41;;;;;;;4.50;1.10;;;;;;;;;;6184876;23;20016;-90
2023/05/02 16:15:26;;;;;;;3.55;1.20;;;;;;;;;;6163575;23;20020;-92
2023/05/02 16:18:10;;;;;;;3.90;1.05;;;;;;;;;;6185608;23;20351;-88
2023/05/02 16:20:58;;;;;;;5.10;1.08;;;;;;;;;;6186319;23;20032;-95
2023/05/02 16:23:43;;;;;;;7.60;2.35;;;;;;;;;;6187948;23;20143;-94
2023/05/02 16:26:27;;;;;;;5.70;1.05;;;;;;;;;;6186799;23;20016;-94
2023/05/02 16:29:12;;;;;;;3.60;1.20;;;;;;;;;;6186068;23;20131;-89